sensor_id;sensor_type;location;lat;lon;timestamp;P1;durP1;ratioP1;P2;durP2;ratioP2
6679;SDS011;3376;42.664;23.346;2022-09-09T00:00:49;10.23;;;9.43;;
6679;SDS011;3376;42.664;23.346;2022-09-09T00:03:23;8.40;;;8.00;;
6679;SDS011;3376;42.664;23.346;2022-09-09T00:05:55;9.33;;;8.83;;
6679;SDS011;3376;42.664;23.346;2022-09-09T00:08:31;9.53;;;9.03;;
6679;SDS011;3376;42.664;23.346;2022-09-09T00:11:08;9.10;;;8.50;;
6679;SDS011;3376;42.664;23.346;2022-09-09T00:13:39;10.23;;;9.30;;
6679;SDS011;3376;42.664;23.346;2022-09-09T00:16:16;9.83;;;9.13;;
6679;SDS011;3376;42.664;23.346;2022-09-09T00:18:50;10.23;;;9.63;;
6679;SDS011;3376;42.664;23.346;2022-09-09T00:21:25;12.60;;;9.93;;
6679;SDS011;3376;42.664;23.346;2022-09-09T00:23:57;9.90;;;9.10;;
6679;SDS011;3376;42.664;23.346;2022-09-09T00:26:27;12.53;;;9.70;;
6679;SDS011;3376;42.664;23.346;2022-09-09T00:29:03;10.17;;;9.53;;
6679;SDS011;3376;42.664;23.346;2022-09-09T00:31:42;10.97;;;10.13;;
6679;SDS011;3376;42.664;23.346;2022-09-09T00:34:10;10.27;;;9.53;;
6679;SDS011;3376;42.664;23.346;2022-09-09T00:36:39;10.17;;;9.67;;
6679;SDS011;3376;42.664;23.346;2022-09-09T00:39:09;10.30;;;9.77;;
6679;SDS011;3376;42.664;23.346;2022-09-09T00:41:46;10.83;;;10.23;;
6679;SDS011;3376;42.664;23.346;2022-09-09T00:44:25;12.33;;;11.50;;
6679;SDS011;3376;42.664;23.346;2022-09-09T00:47:07;12.27;;;11.43;;
6679;SDS011;3376;42.664;23.346;2022-09-09T00:49:47;11.67;;;10.87;;
6679;SDS011;3376;42.664;23.346;2022-09-09T00:52:27;10.70;;;10.00;;
6679;SDS011;3376;42.664;23.346;2022-09-09T00:55:05;11.07;;;10.23;;
6679;SDS011;3376;42.664;23.346;2022-09-09T00:57:40;10.80;;;10.03;;
6679;SDS011;3376;42.664;23.346;2022-09-09T01:00:18;10.23;;;9.63;;
6679;SDS011;3376;42.664;23.346;2022-09-09T01:02:54;10.70;;;9.87;;
6679;SDS011;3376;42.664;23.346;2022-09-09T01:05:30;10.97;;;10.17;;
6679;SDS011;3376;42.664;23.346;2022-09-09T01:08:02;10.07;;;9.37;;
6679;SDS011;3376;42.664;23.346;2022-09-09T01:10:39;10.10;;;9.47;;
6679;SDS011;3376;42.664;23.346;2022-09-09T01:13:15;10.30;;;9.43;;
6679;SDS011;3376;42.664;23.346;2022-09-09T01:15:48;9.63;;;8.83;;
6679;SDS011;3376;42.664;23.346;2022-09-09T01:18:20;10.93;;;9.83;;
6679;SDS011;3376;42.664;23.346;2022-09-09T01:20:53;10.47;;;9.87;;
6679;SDS011;3376;42.664;23.346;2022-09-09T01:23:34;12.57;;;10.23;;
6679;SDS011;3376;42.664;23.346;2022-09-09T01:26:20;12.00;;;10.07;;
6679;SDS011;3376;42.664;23.346;2022-09-09T01:28:51;10.80;;;9.73;;
6679;SDS011;3376;42.664;23.346;2022-09-09T01:31:19;11.43;;;10.50;;
6679;SDS011;3376;42.664;23.346;2022-09-09T01:33:50;11.30;;;10.60;;
6679;SDS011;3376;42.664;23.346;2022-09-09T01:36:19;11.70;;;10.53;;
6679;SDS011;3376;42.664;23.346;2022-09-09T01:38:51;10.70;;;10.20;;
6679;SDS011;3376;42.664;23.346;2022-09-09T01:41:18;10.83;;;10.33;;
6679;SDS011;3376;42.664;23.346;2022-09-09T01:43:47;11.23;;;10.10;;
6679;SDS011;3376;42.664;23.346;2022-09-09T01:46:15;11.57;;;10.73;;
6679;SDS011;3376;42.664;23.346;2022-09-09T01:48:43;10.23;;;9.70;;
6679;SDS011;3376;42.664;23.346;2022-09-09T01:51:11;10.00;;;9.33;;
6679;SDS011;3376;42.664;23.346;2022-09-09T01:53:38;10.67;;;10.07;;
6679;SDS011;3376;42.664;23.346;2022-09-09T01:56:11;10.73;;;10.00;;
6679;SDS011;3376;42.664;23.346;2022-09-09T01:58:52;11.30;;;10.70;;
6679;SDS011;3376;42.664;23.346;2022-09-09T02:01:46;10.73;;;9.83;;
6679;SDS011;3376;42.664;23.346;2022-09-09T02:04:27;11.00;;;10.40;;
6679;SDS011;3376;42.664;23.346;2022-09-09T02:07:02;11.10;;;10.10;;
6679;SDS011;3376;42.664;23.346;2022-09-09T02:09:38;10.63;;;10.10;;
6679;SDS011;3376;42.664;23.346;2022-09-09T02:12:10;12.40;;;11.33;;
6679;SDS011;3376;42.664;23.346;2022-09-09T02:14:47;10.27;;;9.57;;
6679;SDS011;3376;42.664;23.346;2022-09-09T02:17:16;11.37;;;10.67;;
6679;SDS011;3376;42.664;23.346;2022-09-09T02:19:48;11.47;;;10.47;;
6679;SDS011;3376;42.664;23.346;2022-09-09T02:22:19;12.47;;;11.37;;
6679;SDS011;3376;42.664;23.346;2022-09-09T02:24:48;12.73;;;11.73;;
6679;SDS011;3376;42.664;23.346;2022-09-09T02:27:20;10.93;;;9.93;;
6679;SDS011;3376;42.664;23.346;2022-09-09T02:29:48;11.30;;;10.40;;
6679;SDS011;3376;42.664;23.346;2022-09-09T02:32:17;11.73;;;10.83;;
6679;SDS011;3376;42.664;23.346;2022-09-09T02:34:48;10.23;;;9.67;;
6679;SDS011;3376;42.664;23.346;2022-09-09T02:37:21;10.87;;;10.37;;
6679;SDS011;3376;42.664;23.346;2022-09-09T02:39:53;11.83;;;11.13;;
6679;SDS011;3376;42.664;23.346;2022-09-09T02:42:20;10.53;;;9.73;;
6679;SDS011;3376;42.664;23.346;2022-09-09T02:44:48;11.10;;;10.50;;
6679;SDS011;3376;42.664;23.346;2022-09-09T02:47:26;11.63;;;10.83;;
6679;SDS011;3376;42.664;23.346;2022-09-09T02:50:02;11.17;;;10.27;;
6679;SDS011;3376;42.664;23.346;2022-09-09T02:52:38;11.37;;;10.67;;
6679;SDS011;3376;42.664;23.346;2022-09-09T02:55:16;10.97;;;10.13;;
6679;SDS011;3376;42.664;23.346;2022-09-09T02:57:47;11.83;;;11.13;;
6679;SDS011;3376;42.664;23.346;2022-09-09T03:00:17;10.37;;;9.83;;
6679;SDS011;3376;42.664;23.346;2022-09-09T03:02:49;12.30;;;10.93;;
6679;SDS011;3376;42.664;23.346;2022-09-09T03:05:16;11.40;;;10.87;;
6679;SDS011;3376;42.664;23.346;2022-09-09T03:07:43;11.87;;;11.27;;
6679;SDS011;3376;42.664;23.346;2022-09-09T03:10:10;11.53;;;10.77;;
6679;SDS011;3376;42.664;23.346;2022-09-09T03:12:37;11.33;;;10.73;;
6679;SDS011;3376;42.664;23.346;2022-09-09T03:15:04;12.50;;;11.20;;
6679;SDS011;3376;42.664;23.346;2022-09-09T03:17:33;11.00;;;10.30;;
6679;SDS011;3376;42.664;23.346;2022-09-09T03:20:00;11.90;;;11.10;;
6679;SDS011;3376;42.664;23.346;2022-09-09T03:22:28;11.70;;;11.00;;
6679;SDS011;3376;42.664;23.346;2022-09-09T03:24:54;12.07;;;11.27;;
6679;SDS011;3376;42.664;23.346;2022-09-09T03:27:21;11.47;;;10.67;;
6679;SDS011;3376;42.664;23.346;2022-09-09T03:29:48;12.13;;;11.47;;
6679;SDS011;3376;42.664;23.346;2022-09-09T03:32:16;14.00;;;12.83;;
6679;SDS011;3376;42.664;23.346;2022-09-09T03:34:44;12.70;;;11.70;;
6679;SDS011;3376;42.664;23.346;2022-09-09T03:37:14;11.47;;;10.77;;
6679;SDS011;3376;42.664;23.346;2022-09-09T03:39:42;12.97;;;11.80;;
6679;SDS011;3376;42.664;23.346;2022-09-09T03:42:08;12.50;;;11.60;;
6679;SDS011;3376;42.664;23.346;2022-09-09T03:44:39;11.13;;;10.43;;
6679;SDS011;3376;42.664;23.346;2022-09-09T03:47:07;15.50;;;11.03;;
6679;SDS011;3376;42.664;23.346;2022-09-09T03:49:33;12.33;;;11.20;;
6679;SDS011;3376;42.664;23.346;2022-09-09T03:52:02;12.23;;;11.20;;
6679;SDS011;3376;42.664;23.346;2022-09-09T03:54:28;13.20;;;11.37;;
6679;SDS011;3376;42.664;23.346;2022-09-09T03:56:55;11.87;;;10.97;;
6679;SDS011;3376;42.664;23.346;2022-09-09T03:59:23;11.17;;;10.53;;
6679;SDS011;3376;42.664;23.346;2022-09-09T04:01:50;11.67;;;10.87;;
6679;SDS011;3376;42.664;23.346;2022-09-09T04:04:17;11.30;;;10.50;;
6679;SDS011;3376;42.664;23.346;2022-09-09T04:06:45;11.83;;;10.97;;
6679;SDS011;3376;42.664;23.346;2022-09-09T04:09:14;12.00;;;10.93;;
6679;SDS011;3376;42.664;23.346;2022-09-09T04:11:41;11.53;;;10.70;;
6679;SDS011;3376;42.664;23.346;2022-09-09T04:14:08;12.33;;;11.27;;
6679;SDS011;3376;42.664;23.346;2022-09-09T04:16:35;12.33;;;11.43;;
6679;SDS011;3376;42.664;23.346;2022-09-09T04:19:02;11.73;;;10.53;;
6679;SDS011;3376;42.664;23.346;2022-09-09T04:21:31;12.60;;;11.67;;
6679;SDS011;3376;42.664;23.346;2022-09-09T04:23:58;12.63;;;11.70;;
6679;SDS011;3376;42.664;23.346;2022-09-09T04:26:26;11.93;;;11.37;;
6679;SDS011;3376;42.664;23.346;2022-09-09T04:28:53;12.67;;;11.87;;
6679;SDS011;3376;42.664;23.346;2022-09-09T04:31:21;11.60;;;10.97;;
6679;SDS011;3376;42.664;23.346;2022-09-09T04:33:49;11.67;;;10.67;;
6679;SDS011;3376;42.664;23.346;2022-09-09T04:36:16;12.77;;;11.53;;
6679;SDS011;3376;42.664;23.346;2022-09-09T04:38:44;13.83;;;10.70;;
6679;SDS011;3376;42.664;23.346;2022-09-09T04:41:11;14.00;;;10.80;;
6679;SDS011;3376;42.664;23.346;2022-09-09T04:43:40;11.60;;;10.77;;
6679;SDS011;3376;42.664;23.346;2022-09-09T04:46:06;12.60;;;11.80;;
6679;SDS011;3376;42.664;23.346;2022-09-09T04:48:33;10.93;;;10.20;;
6679;SDS011;3376;42.664;23.346;2022-09-09T04:51:00;12.57;;;11.97;;
6679;SDS011;3376;42.664;23.346;2022-09-09T04:53:29;14.70;;;13.30;;
6679;SDS011;3376;42.664;23.346;2022-09-09T04:56:03;14.50;;;13.47;;
6679;SDS011;3376;42.664;23.346;2022-09-09T04:58:32;14.93;;;13.43;;
6679;SDS011;3376;42.664;23.346;2022-09-09T05:01:04;13.83;;;12.80;;
6679;SDS011;3376;42.664;23.346;2022-09-09T05:03:32;12.47;;;11.43;;
6679;SDS011;3376;42.664;23.346;2022-09-09T05:06:03;12.10;;;11.03;;
6679;SDS011;3376;42.664;23.346;2022-09-09T05:08:31;13.27;;;12.13;;
6679;SDS011;3376;42.664;23.346;2022-09-09T05:10:58;11.60;;;10.60;;
6679;SDS011;3376;42.664;23.346;2022-09-09T05:13:25;13.47;;;12.03;;
6679;SDS011;3376;42.664;23.346;2022-09-09T05:15:53;12.03;;;11.30;;
6679;SDS011;3376;42.664;23.346;2022-09-09T05:18:21;16.17;;;12.17;;
6679;SDS011;3376;42.664;23.346;2022-09-09T05:20:48;11.77;;;11.03;;
6679;SDS011;3376;42.664;23.346;2022-09-09T05:23:16;12.90;;;11.63;;
6679;SDS011;3376;42.664;23.346;2022-09-09T05:25:43;18.40;;;12.00;;
6679;SDS011;3376;42.664;23.346;2022-09-09T05:28:11;13.63;;;12.23;;
6679;SDS011;3376;42.664;23.346;2022-09-09T05:30:38;13.57;;;12.30;;
6679;SDS011;3376;42.664;23.346;2022-09-09T05:33:05;12.80;;;11.57;;
6679;SDS011;3376;42.664;23.346;2022-09-09T05:35:35;13.63;;;12.30;;
6679;SDS011;3376;42.664;23.346;2022-09-09T05:38:03;14.70;;;11.03;;
6679;SDS011;3376;42.664;23.346;2022-09-09T05:40:29;14.17;;;11.20;;
6679;SDS011;3376;42.664;23.346;2022-09-09T05:42:59;12.57;;;11.57;;
6679;SDS011;3376;42.664;23.346;2022-09-09T05:45:26;12.67;;;10.70;;
6679;SDS011;3376;42.664;23.346;2022-09-09T05:47:53;10.77;;;9.93;;
6679;SDS011;3376;42.664;23.346;2022-09-09T05:50:26;10.80;;;10.07;;
6679;SDS011;3376;42.664;23.346;2022-09-09T05:52:55;10.67;;;9.63;;
6679;SDS011;3376;42.664;23.346;2022-09-09T05:55:22;10.73;;;8.97;;
6679;SDS011;3376;42.664;23.346;2022-09-09T05:57:50;8.73;;;8.23;;
6679;SDS011;3376;42.664;23.346;2022-09-09T06:00:17;9.43;;;8.63;;
6679;SDS011;3376;42.664;23.346;2022-09-09T06:02:49;9.43;;;8.63;;
6679;SDS011;3376;42.664;23.346;2022-09-09T06:05:17;7.77;;;7.47;;
6679;SDS011;3376;42.664;23.346;2022-09-09T06:07:44;8.47;;;7.77;;
6679;SDS011;3376;42.664;23.346;2022-09-09T06:10:12;8.63;;;8.07;;
6679;SDS011;3376;42.664;23.346;2022-09-09T06:12:39;9.07;;;7.97;;
6679;SDS011;3376;42.664;23.346;2022-09-09T06:15:06;9.50;;;7.63;;
6679;SDS011;3376;42.664;23.346;2022-09-09T06:17:34;8.17;;;7.77;;
6679;SDS011;3376;42.664;23.346;2022-09-09T06:20:01;8.03;;;7.53;;
6679;SDS011;3376;42.664;23.346;2022-09-09T06:22:28;9.10;;;7.97;;
6679;SDS011;3376;42.664;23.346;2022-09-09T06:24:55;9.70;;;8.73;;
6679;SDS011;3376;42.664;23.346;2022-09-09T06:27:23;11.60;;;8.40;;
6679;SDS011;3376;42.664;23.346;2022-09-09T06:29:50;8.60;;;7.80;;
6679;SDS011;3376;42.664;23.346;2022-09-09T06:32:17;8.90;;;8.07;;
6679;SDS011;3376;42.664;23.346;2022-09-09T06:34:44;8.77;;;8.30;;
6679;SDS011;3376;42.664;23.346;2022-09-09T06:37:12;8.23;;;7.63;;
6679;SDS011;3376;42.664;23.346;2022-09-09T06:39:39;11.30;;;9.03;;
6679;SDS011;3376;42.664;23.346;2022-09-09T06:42:06;9.50;;;8.70;;
6679;SDS011;3376;42.664;23.346;2022-09-09T06:44:35;8.87;;;8.00;;
6679;SDS011;3376;42.664;23.346;2022-09-09T06:47:01;8.77;;;8.07;;
6679;SDS011;3376;42.664;23.346;2022-09-09T06:49:28;11.60;;;8.00;;
6679;SDS011;3376;42.664;23.346;2022-09-09T06:51:55;8.83;;;8.13;;
6679;SDS011;3376;42.664;23.346;2022-09-09T06:54:22;10.67;;;7.30;;
6679;SDS011;3376;42.664;23.346;2022-09-09T06:56:49;10.37;;;7.53;;
6679;SDS011;3376;42.664;23.346;2022-09-09T06:59:15;7.50;;;6.87;;
6679;SDS011;3376;42.664;23.346;2022-09-09T07:01:44;7.70;;;7.10;;
6679;SDS011;3376;42.664;23.346;2022-09-09T07:04:11;7.80;;;7.30;;
6679;SDS011;3376;42.664;23.346;2022-09-09T07:06:40;6.97;;;6.33;;
6679;SDS011;3376;42.664;23.346;2022-09-09T07:09:10;6.30;;;5.83;;
6679;SDS011;3376;42.664;23.346;2022-09-09T07:11:38;7.87;;;7.20;;
6679;SDS011;3376;42.664;23.346;2022-09-09T07:14:07;8.03;;;7.27;;
6679;SDS011;3376;42.664;23.346;2022-09-09T07:16:34;7.40;;;6.53;;
6679;SDS011;3376;42.664;23.346;2022-09-09T07:19:03;6.67;;;6.37;;
6679;SDS011;3376;42.664;23.346;2022-09-09T07:21:30;6.73;;;6.50;;
6679;SDS011;3376;42.664;23.346;2022-09-09T07:23:59;7.23;;;6.60;;
6679;SDS011;3376;42.664;23.346;2022-09-09T07:26:27;7.60;;;7.30;;
6679;SDS011;3376;42.664;23.346;2022-09-09T07:28:55;6.60;;;6.00;;
6679;SDS011;3376;42.664;23.346;2022-09-09T07:31:23;7.50;;;6.73;;
6679;SDS011;3376;42.664;23.346;2022-09-09T07:33:51;7.07;;;5.73;;
6679;SDS011;3376;42.664;23.346;2022-09-09T07:36:20;6.37;;;5.77;;
6679;SDS011;3376;42.664;23.346;2022-09-09T07:38:49;6.77;;;6.37;;
6679;SDS011;3376;42.664;23.346;2022-09-09T07:41:18;8.27;;;6.30;;
6679;SDS011;3376;42.664;23.346;2022-09-09T07:43:46;6.70;;;6.30;;
6679;SDS011;3376;42.664;23.346;2022-09-09T07:46:15;6.20;;;5.90;;
6679;SDS011;3376;42.664;23.346;2022-09-09T07:48:44;6.93;;;6.38;;
6679;SDS011;3376;42.664;23.346;2022-09-09T07:51:13;6.07;;;5.70;;
6679;SDS011;3376;42.664;23.346;2022-09-09T07:53:44;6.15;;;5.65;;
6679;SDS011;3376;42.664;23.346;2022-09-09T07:56:14;6.32;;;5.38;;
6679;SDS011;3376;42.664;23.346;2022-09-09T07:58:44;5.63;;;5.10;;
6679;SDS011;3376;42.664;23.346;2022-09-09T08:01:13;10.93;;;10.25;;
6679;SDS011;3376;42.664;23.346;2022-09-09T08:03:43;6.65;;;6.05;;
6679;SDS011;3376;42.664;23.346;2022-09-09T08:06:10;10.82;;;9.85;;
6679;SDS011;3376;42.664;23.346;2022-09-09T08:08:39;7.28;;;4.88;;
6679;SDS011;3376;42.664;23.346;2022-09-09T08:11:10;4.57;;;4.28;;
6679;SDS011;3376;42.664;23.346;2022-09-09T08:13:39;6.45;;;5.05;;
6679;SDS011;3376;42.664;23.346;2022-09-09T08:16:07;5.57;;;5.07;;
6679;SDS011;3376;42.664;23.346;2022-09-09T08:18:35;5.30;;;5.00;;
6679;SDS011;3376;42.664;23.346;2022-09-09T08:21:09;5.07;;;4.57;;
6679;SDS011;3376;42.664;23.346;2022-09-09T08:23:38;5.15;;;4.80;;
6679;SDS011;3376;42.664;23.346;2022-09-09T08:26:09;6.32;;;5.10;;
6679;SDS011;3376;42.664;23.346;2022-09-09T08:28:38;5.03;;;4.82;;
6679;SDS011;3376;42.664;23.346;2022-09-09T08:31:06;5.07;;;4.68;;
6679;SDS011;3376;42.664;23.346;2022-09-09T08:33:34;4.82;;;4.60;;
6679;SDS011;3376;42.664;23.346;2022-09-09T08:36:06;5.68;;;5.07;;
6679;SDS011;3376;42.664;23.346;2022-09-09T08:38:36;6.22;;;5.70;;
6679;SDS011;3376;42.664;23.346;2022-09-09T08:44:06;5.68;;;5.20;;
6679;SDS011;3376;42.664;23.346;2022-09-09T08:46:40;7.72;;;5.45;;
6679;SDS011;3376;42.664;23.346;2022-09-09T08:49:22;5.88;;;5.47;;
6679;SDS011;3376;42.664;23.346;2022-09-09T08:52:03;5.50;;;5.30;;
6679;SDS011;3376;42.664;23.346;2022-09-09T08:54:41;4.78;;;4.47;;
6679;SDS011;3376;42.664;23.346;2022-09-09T08:57:11;5.35;;;5.00;;
6679;SDS011;3376;42.664;23.346;2022-09-09T08:59:44;6.28;;;5.47;;
6679;SDS011;3376;42.664;23.346;2022-09-09T09:02:14;6.35;;;5.85;;
6679;SDS011;3376;42.664;23.346;2022-09-09T09:04:50;5.00;;;4.80;;
6679;SDS011;3376;42.664;23.346;2022-09-09T09:07:28;6.00;;;5.03;;
6679;SDS011;3376;42.664;23.346;2022-09-09T09:10:05;5.93;;;5.43;;
6679;SDS011;3376;42.664;23.346;2022-09-09T09:12:42;6.03;;;5.68;;
6679;SDS011;3376;42.664;23.346;2022-09-09T09:15:14;5.03;;;4.72;;
6679;SDS011;3376;42.664;23.346;2022-09-09T09:17:46;5.65;;;5.25;;
6679;SDS011;3376;42.664;23.346;2022-09-09T09:20:14;9.30;;;5.13;;
6679;SDS011;3376;42.664;23.346;2022-09-09T09:22:44;8.50;;;7.65;;
6679;SDS011;3376;42.664;23.346;2022-09-09T09:25:16;6.57;;;6.18;;
6679;SDS011;3376;42.664;23.346;2022-09-09T09:27:48;6.95;;;6.43;;
6679;SDS011;3376;42.664;23.346;2022-09-09T09:30:23;5.57;;;5.22;;
6679;SDS011;3376;42.664;23.346;2022-09-09T09:32:55;5.70;;;5.40;;
6679;SDS011;3376;42.664;23.346;2022-09-09T09:35:26;8.70;;;5.35;;
6679;SDS011;3376;42.664;23.346;2022-09-09T09:37:53;5.43;;;5.03;;
6679;SDS011;3376;42.664;23.346;2022-09-09T09:40:21;5.47;;;5.05;;
6679;SDS011;3376;42.664;23.346;2022-09-09T09:42:51;5.18;;;4.65;;
6679;SDS011;3376;42.664;23.346;2022-09-09T09:45:23;6.32;;;5.72;;
6679;SDS011;3376;42.664;23.346;2022-09-09T09:47:58;5.72;;;5.35;;
6679;SDS011;3376;42.664;23.346;2022-09-09T09:50:27;5.00;;;4.60;;
6679;SDS011;3376;42.664;23.346;2022-09-09T09:52:54;6.05;;;5.47;;
6679;SDS011;3376;42.664;23.346;2022-09-09T09:55:22;5.95;;;5.55;;
6679;SDS011;3376;42.664;23.346;2022-09-09T09:57:52;7.82;;;4.97;;
6679;SDS011;3376;42.664;23.346;2022-09-09T10:00:20;5.13;;;4.82;;
6679;SDS011;3376;42.664;23.346;2022-09-09T10:02:48;5.85;;;5.30;;
6679;SDS011;3376;42.664;23.346;2022-09-09T10:05:18;6.22;;;5.20;;
6679;SDS011;3376;42.664;23.346;2022-09-09T10:07:46;5.70;;;5.28;;
6679;SDS011;3376;42.664;23.346;2022-09-09T10:10:28;6.20;;;5.70;;
6679;SDS011;3376;42.664;23.346;2022-09-09T10:13:09;5.72;;;5.25;;
6679;SDS011;3376;42.664;23.346;2022-09-09T10:15:44;8.60;;;6.13;;
6679;SDS011;3376;42.664;23.346;2022-09-09T10:18:25;8.05;;;5.25;;
6679;SDS011;3376;42.664;23.346;2022-09-09T10:21:03;6.07;;;5.63;;
6679;SDS011;3376;42.664;23.346;2022-09-09T10:23:47;7.88;;;6.32;;
6679;SDS011;3376;42.664;23.346;2022-09-09T10:26:27;6.13;;;5.88;;
6679;SDS011;3376;42.664;23.346;2022-09-09T10:29:18;7.50;;;6.22;;
6679;SDS011;3376;42.664;23.346;2022-09-09T10:32:06;6.35;;;5.90;;
6679;SDS011;3376;42.664;23.346;2022-09-09T10:34:55;6.78;;;6.05;;
6679;SDS011;3376;42.664;23.346;2022-09-09T10:37:34;6.18;;;5.70;;
6679;SDS011;3376;42.664;23.346;2022-09-09T10:40:39;5.88;;;5.40;;
6679;SDS011;3376;42.664;23.346;2022-09-09T10:43:18;6.32;;;5.80;;
6679;SDS011;3376;42.664;23.346;2022-09-09T10:45:58;6.38;;;5.80;;
6679;SDS011;3376;42.664;23.346;2022-09-09T10:48:40;7.03;;;6.22;;
6679;SDS011;3376;42.664;23.346;2022-09-09T10:51:23;6.25;;;5.90;;
6679;SDS011;3376;42.664;23.346;2022-09-09T10:54:04;6.57;;;6.13;;
6679;SDS011;3376;42.664;23.346;2022-09-09T10:56:40;6.60;;;6.00;;
6679;SDS011;3376;42.664;23.346;2022-09-09T10:59:12;5.97;;;5.75;;
6679;SDS011;3376;42.664;23.346;2022-09-09T11:01:47;6.57;;;6.28;;
6679;SDS011;3376;42.664;23.346;2022-09-09T11:04:19;7.93;;;6.40;;
6679;SDS011;3376;42.664;23.346;2022-09-09T11:06:49;6.65;;;6.13;;
6679;SDS011;3376;42.664;23.346;2022-09-09T11:09:21;6.22;;;5.72;;
6679;SDS011;3376;42.664;23.346;2022-09-09T11:11:52;17.70;;;6.78;;
6679;SDS011;3376;42.664;23.346;2022-09-09T11:14:22;22.73;;;7.28;;
6679;SDS011;3376;42.664;23.346;2022-09-09T11:16:57;49.83;;;9.27;;
6679;SDS011;3376;42.664;23.346;2022-09-09T11:19:28;11.90;;;7.53;;
6679;SDS011;3376;42.664;23.346;2022-09-09T11:22:00;10.70;;;6.68;;
6679;SDS011;3376;42.664;23.346;2022-09-09T11:24:31;7.68;;;6.72;;
6679;SDS011;3376;42.664;23.346;2022-09-09T11:27:01;14.02;;;7.57;;
6679;SDS011;3376;42.664;23.346;2022-09-09T11:29:44;7.70;;;7.28;;
6679;SDS011;3376;42.664;23.346;2022-09-09T11:32:38;7.43;;;6.80;;
6679;SDS011;3376;42.664;23.346;2022-09-09T11:35:20;6.75;;;6.45;;
6679;SDS011;3376;42.664;23.346;2022-09-09T11:38:12;8.30;;;7.53;;
6679;SDS011;3376;42.664;23.346;2022-09-09T11:40:44;9.45;;;7.55;;
6679;SDS011;3376;42.664;23.346;2022-09-09T11:43:13;7.80;;;7.07;;
6679;SDS011;3376;42.664;23.346;2022-09-09T11:45:50;7.07;;;6.68;;
6679;SDS011;3376;42.664;23.346;2022-09-09T11:48:25;8.40;;;7.75;;
6679;SDS011;3376;42.664;23.346;2022-09-09T11:50:59;7.28;;;6.88;;
6679;SDS011;3376;42.664;23.346;2022-09-09T11:53:30;8.65;;;7.85;;
6679;SDS011;3376;42.664;23.346;2022-09-09T11:56:04;8.20;;;7.40;;
6679;SDS011;3376;42.664;23.346;2022-09-09T11:58:37;7.78;;;7.28;;
6679;SDS011;3376;42.664;23.346;2022-09-09T12:01:13;8.85;;;8.05;;
6679;SDS011;3376;42.664;23.346;2022-09-09T12:06:44;8.38;;;7.82;;
6679;SDS011;3376;42.664;23.346;2022-09-09T12:09:17;11.75;;;8.30;;
6679;SDS011;3376;42.664;23.346;2022-09-09T12:11:49;8.77;;;7.85;;
6679;SDS011;3376;42.664;23.346;2022-09-09T12:14:20;8.60;;;7.47;;
6679;SDS011;3376;42.664;23.346;2022-09-09T12:16:49;10.15;;;7.75;;
6679;SDS011;3376;42.664;23.346;2022-09-09T12:19:18;8.80;;;7.90;;
6679;SDS011;3376;42.664;23.346;2022-09-09T12:21:52;9.00;;;7.68;;
6679;SDS011;3376;42.664;23.346;2022-09-09T12:24:29;8.00;;;7.40;;
6679;SDS011;3376;42.664;23.346;2022-09-09T12:27:05;8.13;;;7.70;;
6679;SDS011;3376;42.664;23.346;2022-09-09T12:29:41;8.68;;;7.50;;
6679;SDS011;3376;42.664;23.346;2022-09-09T12:32:14;10.10;;;7.88;;
6679;SDS011;3376;42.664;23.346;2022-09-09T12:34:46;12.98;;;7.63;;
6679;SDS011;3376;42.664;23.346;2022-09-09T12:37:17;12.70;;;8.05;;
6679;SDS011;3376;42.664;23.346;2022-09-09T12:39:52;8.43;;;7.65;;
6679;SDS011;3376;42.664;23.346;2022-09-09T12:42:22;15.63;;;8.38;;
6679;SDS011;3376;42.664;23.346;2022-09-09T12:44:56;8.73;;;7.93;;
6679;SDS011;3376;42.664;23.346;2022-09-09T12:47:26;8.23;;;7.60;;
6679;SDS011;3376;42.664;23.346;2022-09-09T12:50:02;12.52;;;10.65;;
6679;SDS011;3376;42.664;23.346;2022-09-09T12:52:30;12.27;;;7.22;;
6679;SDS011;3376;42.664;23.346;2022-09-09T12:55:02;11.45;;;8.07;;
6679;SDS011;3376;42.664;23.346;2022-09-09T12:57:33;9.05;;;8.35;;
6679;SDS011;3376;42.664;23.346;2022-09-09T13:00:06;9.95;;;9.27;;
6679;SDS011;3376;42.664;23.346;2022-09-09T13:02:45;10.90;;;8.50;;
6679;SDS011;3376;42.664;23.346;2022-09-09T13:05:17;9.25;;;8.20;;
6679;SDS011;3376;42.664;23.346;2022-09-09T13:07:46;11.65;;;7.25;;
6679;SDS011;3376;42.664;23.346;2022-09-09T13:10:13;11.63;;;8.25;;
6679;SDS011;3376;42.664;23.346;2022-09-09T13:12:46;8.55;;;7.53;;
6679;SDS011;3376;42.664;23.346;2022-09-09T13:15:19;9.15;;;8.35;;
6679;SDS011;3376;42.664;23.346;2022-09-09T13:17:52;10.27;;;8.05;;
6679;SDS011;3376;42.664;23.346;2022-09-09T13:20:22;13.15;;;8.00;;
6679;SDS011;3376;42.664;23.346;2022-09-09T13:22:50;8.65;;;7.70;;
6679;SDS011;3376;42.664;23.346;2022-09-09T13:25:23;8.88;;;7.82;;
6679;SDS011;3376;42.664;23.346;2022-09-09T13:27:52;8.95;;;7.78;;
6679;SDS011;3376;42.664;23.346;2022-09-09T13:30:22;8.77;;;7.90;;
6679;SDS011;3376;42.664;23.346;2022-09-09T13:33:01;8.70;;;8.00;;
6679;SDS011;3376;42.664;23.346;2022-09-09T13:35:47;9.05;;;8.35;;
6679;SDS011;3376;42.664;23.346;2022-09-09T13:38:15;11.82;;;7.78;;
6679;SDS011;3376;42.664;23.346;2022-09-09T13:40:51;8.65;;;7.85;;
6679;SDS011;3376;42.664;23.346;2022-09-09T13:43:21;10.57;;;8.27;;
6679;SDS011;3376;42.664;23.346;2022-09-09T13:45:52;13.68;;;8.68;;
6679;SDS011;3376;42.664;23.346;2022-09-09T13:48:21;11.52;;;8.20;;
6679;SDS011;3376;42.664;23.346;2022-09-09T13:50:55;15.88;;;8.52;;
6679;SDS011;3376;42.664;23.346;2022-09-09T13:53:23;8.90;;;8.23;;
6679;SDS011;3376;42.664;23.346;2022-09-09T13:55:50;8.20;;;7.60;;
6679;SDS011;3376;42.664;23.346;2022-09-09T13:58:17;8.88;;;7.85;;
6679;SDS011;3376;42.664;23.346;2022-09-09T14:00:45;8.60;;;7.97;;
6679;SDS011;3376;42.664;23.346;2022-09-09T14:03:12;9.70;;;7.72;;
6679;SDS011;3376;42.664;23.346;2022-09-09T14:05:39;9.98;;;8.60;;
6679;SDS011;3376;42.664;23.346;2022-09-09T14:08:09;11.95;;;9.30;;
6679;SDS011;3376;42.664;23.346;2022-09-09T14:10:51;10.18;;;8.40;;
6679;SDS011;3376;42.664;23.346;2022-09-09T14:13:18;8.57;;;7.75;;
6679;SDS011;3376;42.664;23.346;2022-09-09T14:15:47;8.32;;;7.55;;
6679;SDS011;3376;42.664;23.346;2022-09-09T14:18:15;10.38;;;8.20;;
6679;SDS011;3376;42.664;23.346;2022-09-09T14:20:43;9.00;;;8.10;;
6679;SDS011;3376;42.664;23.346;2022-09-09T14:23:12;8.27;;;7.32;;
6679;SDS011;3376;42.664;23.346;2022-09-09T14:25:41;9.85;;;8.20;;
6679;SDS011;3376;42.664;23.346;2022-09-09T14:28:11;12.93;;;7.75;;
6679;SDS011;3376;42.664;23.346;2022-09-09T14:30:39;7.72;;;7.32;;
6679;SDS011;3376;42.664;23.346;2022-09-09T14:33:09;10.77;;;8.07;;
6679;SDS011;3376;42.664;23.346;2022-09-09T14:35:40;8.63;;;7.82;;
6679;SDS011;3376;42.664;23.346;2022-09-09T14:38:07;10.48;;;7.60;;
6679;SDS011;3376;42.664;23.346;2022-09-09T14:40:36;9.77;;;7.70;;
6679;SDS011;3376;42.664;23.346;2022-09-09T14:43:04;7.65;;;6.70;;
6679;SDS011;3376;42.664;23.346;2022-09-09T14:45:32;8.75;;;7.20;;
6679;SDS011;3376;42.664;23.346;2022-09-09T14:48:03;8.55;;;6.75;;
6679;SDS011;3376;42.664;23.346;2022-09-09T14:50:30;8.23;;;7.50;;
6679;SDS011;3376;42.664;23.346;2022-09-09T14:52:56;10.05;;;7.35;;
6679;SDS011;3376;42.664;23.346;2022-09-09T14:55:23;7.97;;;7.28;;
6679;SDS011;3376;42.664;23.346;2022-09-09T14:57:51;10.70;;;7.40;;
6679;SDS011;3376;42.664;23.346;2022-09-09T15:00:18;7.90;;;7.32;;
6679;SDS011;3376;42.664;23.346;2022-09-09T15:02:45;9.52;;;7.95;;
6679;SDS011;3376;42.664;23.346;2022-09-09T15:05:12;8.40;;;7.65;;
6679;SDS011;3376;42.664;23.346;2022-09-09T15:07:40;14.13;;;9.40;;
6679;SDS011;3376;42.664;23.346;2022-09-09T15:10:07;10.48;;;7.95;;
6679;SDS011;3376;42.664;23.346;2022-09-09T15:12:35;8.77;;;7.90;;
6679;SDS011;3376;42.664;23.346;2022-09-09T15:15:05;8.25;;;7.65;;
6679;SDS011;3376;42.664;23.346;2022-09-09T15:17:32;12.02;;;7.95;;
6679;SDS011;3376;42.664;23.346;2022-09-09T15:20:01;10.07;;;9.18;;